Time;durP1;ratioP1;P1;durP2;ratioP2;P2;SDS_P1;SDS_P2;PMS_P1;PMS_P2;Temp;Humidity;BMP_temperature;BMP_pressure;BME280_temperature;BME280_humidity;BME280_pressure;Samples;Min_cycle;Max_cycle;Signal;HPM_P1;HPM_P2
2023/05/12 00:00:58;;;;;;;7.82;1.85;;;;;;;20.58;49.34;101458.38;5014380;28;20053;-47
2023/05/12 00:03:24;;;;;;;9.85;1.63;;;;;;;20.99;50.77;101466.91;5015340;28;20486;-49
2023/05/12 00:05:51;;;;;;;5.60;1.73;;;;;;;21.05;47.90;101463.13;5022705;28;20044;-46
2023/05/12 00:08:18;;;;;;;4.63;1.88;;;;;;;21.16;49.29;101467.56;5034833;28;20029;-49
2023/05/12 00:10:44;;;;;;;6.05;2.15;;;;;;;20.37;50.12;101470.09;5025722;28;20112;-46
2023/05/12 00:13:10;;;;;;;6.45;1.90;;;;;;;20.72;51.11;101466.94;5020644;28;20031;-46
2023/05/12 00:15:37;;;;;;;11.52;2.03;;;;;;;20.55;50.07;101469.78;5019694;28;20041;-49
2023/05/12 00:18:03;;;;;;;10.45;2.50;;;;;;;20.68;50.93;101466.63;5019150;28;20030;-48
2023/05/12 00:20:30;;;;;;;5.07;1.85;;;;;;;20.45;51.60;101478.59;5013347;28;20081;-44
2023/05/12 00:22:56;;;;;;;6.97;2.15;;;;;;;20.27;52.45;101471.63;5014935;28;20026;-43
2023/05/12 00:25:22;;;;;;;8.82;2.85;;;;;;;20.12;53.02;101467.91;5017263;28;20109;-45
2023/05/12 00:27:48;;;;;;;6.10;2.40;;;;;;;20.12;52.64;101466.00;5013780;28;20034;-48
2023/05/12 00:30:15;;;;;;;7.53;1.88;;;;;;;20.19;52.60;101471.25;5016787;28;20163;-44
2023/05/12 00:32:41;;;;;;;11.05;2.50;;;;;;;19.85;52.45;101460.53;5014553;28;20022;-45
2023/05/12 00:35:08;;;;;;;8.25;2.65;;;;;;;19.65;53.67;101463.78;5013987;28;20030;-41
2023/05/12 00:37:34;;;;;;;5.53;2.30;;;;;;;19.89;53.62;101461.69;5014837;28;20029;-40
2023/05/12 00:40:00;;;;;;;7.50;2.08;;;;;;;19.66;53.16;101459.22;5017191;28;20033;-41
2023/05/12 00:42:27;;;;;;;9.98;2.88;;;;;;;19.82;53.59;101460.19;5034331;28;20049;-47
2023/05/12 00:44:53;;;;;;;8.77;2.60;;;;;;;19.67;53.01;101469.81;5029498;28;20034;-43
2023/05/12 00:47:20;;;;;;;5.63;2.20;;;;;;;19.32;53.49;101466.53;5026223;28;20126;-47
2023/05/12 00:49:47;;;;;;;7.25;2.58;;;;;;;18.95;54.56;101470.59;5008411;28;20037;-43
2023/05/12 00:52:13;;;;;;;9.52;2.70;;;;;;;18.99;54.71;101473.66;5014448;28;20022;-45
2023/05/12 00:54:42;;;;;;;9.00;2.72;;;;;;;18.57;56.82;101476.69;5012200;28;20026;-46
2023/05/12 00:57:09;;;;;;;7.45;2.38;;;;;;;18.56;56.95;101480.47;4995230;28;20026;-42
2023/05/12 00:59:36;;;;;;;10.57;2.70;;;;;;;18.56;56.95;101480.47;4994875;28;20040;-47
2023/05/12 01:02:02;;;;;;;11.05;3.40;;;;;;;18.55;57.26;101465.28;4995258;28;20026;-43
2023/05/12 01:04:29;;;;;;;11.95;2.95;;;;;;;18.53;56.71;101474.72;4997947;28;20382;-43
2023/05/12 01:07:30;;;;;;;9.55;2.70;;;;;;;18.12;58.07;101469.34;5015307;28;20030;-45
2023/05/12 01:09:58;;;;;;;6.10;2.50;;;;;;;18.23;57.07;101478.50;5001670;28;20493;-43
2023/05/12 01:12:25;;;;;;;7.03;2.25;;;;;;;18.27;56.56;101482.38;5034569;28;20086;-44
2023/05/12 01:14:54;;;;;;;14.45;2.83;;;;;;;18.42;56.83;101490.78;5027049;28;20022;-42
2023/05/12 01:17:27;;;;;;;8.50;2.60;;;;;;;18.24;57.65;101482.03;5014366;28;20033;-44
2023/05/12 01:19:56;;;;;;;7.45;2.47;;;;;;;18.41;57.99;101474.78;5013810;28;20058;-44
2023/05/12 01:22:24;;;;;;;8.93;2.53;;;;;;;18.37;57.44;101474.41;5009787;28;20033;-47
2023/05/12 01:24:53;;;;;;;11.07;2.83;;;;;;;18.50;57.95;101473.31;5013658;28;20037;-44
2023/05/12 01:27:22;;;;;;;10.88;2.60;;;;;;;18.56;58.42;101468.81;5014195;28;20458;-46
2023/05/12 01:29:50;;;;;;;16.52;3.92;;;;;;;18.70;57.88;101475.59;5012034;28;20034;-47
2023/05/12 01:32:18;;;;;;;8.15;2.70;;;;;;;18.40;58.51;101478.56;5013487;28;20029;-44
2023/05/12 01:34:45;;;;;;;13.25;3.40;;;;;;;18.19;59.76;101470.03;5010990;28;20037;-47
2023/05/12 01:37:11;;;;;;;12.30;2.95;;;;;;;18.17;58.81;101469.44;5013541;28;20084;-47
2023/05/12 01:39:38;;;;;;;10.20;2.45;;;;;;;18.04;58.67;101468.88;5014643;28;20030;-44
2023/05/12 01:42:04;;;;;;;8.73;2.38;;;;;;;18.03;58.78;101475.38;5010405;28;20056;-47
2023/05/12 01:44:31;;;;;;;12.70;2.67;;;;;;;17.98;59.29;101469.84;5013615;28;20133;-47
2023/05/12 01:46:57;;;;;;;11.32;2.70;;;;;;;18.29;58.91;101469.41;5013505;28;20041;-43
2023/05/12 01:49:23;;;;;;;11.07;2.53;;;;;;;18.19;57.94;101461.91;5012965;28;20030;-45
2023/05/12 01:51:50;;;;;;;12.00;2.78;;;;;;;18.33;57.94;101465.16;5012253;28;20097;-47
2023/05/12 01:54:16;;;;;;;12.23;2.72;;;;;;;18.57;57.22;101462.31;5007791;28;20080;-48
2023/05/12 01:56:42;;;;;;;10.10;2.50;;;;;;;18.19;57.69;101470.03;5012729;28;20025;-44
2023/05/12 01:59:08;;;;;;;13.90;2.70;;;;;;;18.47;57.67;101466.47;5012636;28;20022;-46
2023/05/12 02:01:35;;;;;;;8.43;3.15;;;;;;;18.27;58.21;101470.72;5011701;28;20141;-44
2023/05/12 02:04:03;;;;;;;7.13;2.67;;;;;;;18.33;58.76;101464.34;5013266;28;20065;-45
2023/05/12 02:06:30;;;;;;;10.45;2.50;;;;;;;18.31;58.01;101469.16;5012937;28;20371;-44
2023/05/12 02:08:57;;;;;;;12.30;3.08;;;;;;;18.25;58.93;101475.53;5013198;28;20042;-45
2023/05/12 02:11:23;;;;;;;11.75;3.05;;;;;;;17.77;60.13;101465.94;5012611;28;20460;-44
2023/05/12 02:13:49;;;;;;;13.23;2.97;;;;;;;18.05;59.68;101468.66;5013000;28;20470;-44
2023/05/12 02:16:16;;;;;;;10.10;3.08;;;;;;;18.43;58.51;101470.78;5013006;28;20040;-48
2023/05/12 02:18:42;;;;;;;11.43;2.88;;;;;;;18.85;57.04;101472.34;5013007;28;20029;-45
2023/05/12 02:21:08;;;;;;;11.02;2.60;;;;;;;18.79;56.87;101470.59;5012572;28;20084;-46
2023/05/12 02:23:35;;;;;;;10.40;2.83;;;;;;;18.80;56.63;101475.78;5012901;28;20025;-44
2023/05/12 02:26:01;;;;;;;9.13;3.25;;;;;;;18.98;55.83;101472.81;5012103;28;20408;-44
2023/05/12 02:28:27;;;;;;;9.60;2.83;;;;;;;18.94;55.56;101468.16;5012808;28;20034;-43
2023/05/12 02:30:53;;;;;;;8.85;2.75;;;;;;;18.39;57.66;101479.63;5012543;28;20462;-44
2023/05/12 02:33:21;;;;;;;8.38;3.42;;;;;;;18.10;58.50;101466.06;5012785;28;20030;-46
2023/05/12 02:35:48;;;;;;;9.07;2.70;;;;;;;18.07;58.30;101466.53;5012672;28;20479;-43
2023/05/12 02:38:14;;;;;;;14.60;3.40;;;;;;;18.00;59.31;101470.47;5012539;28;20065;-44
2023/05/12 02:40:41;;;;;;;11.43;2.55;;;;;;;18.16;58.74;101481.34;5012197;28;20025;-44
2023/05/12 02:43:07;;;;;;;12.35;3.00;;;;;;;17.74;59.42;101478.03;5012392;28;20152;-44
2023/05/12 02:45:34;;;;;;;11.50;3.17;;;;;;;17.69;59.88;101484.13;5012475;28;20041;-45
2023/05/12 02:48:01;;;;;;;12.32;3.60;;;;;;;16.98;62.90;101490.59;5012002;28;20057;-46
2023/05/12 02:50:27;;;;;;;11.77;2.78;;;;;;;16.81;63.69;101489.59;5011965;28;20036;-45
2023/05/12 02:52:53;;;;;;;9.30;2.75;;;;;;;16.91;63.15;101489.88;5012433;28;20026;-44
2023/05/12 02:55:20;;;;;;;13.38;3.80;;;;;;;16.64;63.64;101492.94;5028454;28;20026;-44
2023/05/12 02:57:46;;;;;;;11.07;3.22;;;;;;;16.26;64.70;101482.44;5017805;28;20033;-44
2023/05/12 03:00:12;;;;;;;12.60;2.90;;;;;;;16.42;65.22;101483.69;5011661;28;20038;-43
2023/05/12 03:02:39;;;;;;;13.25;3.25;;;;;;;16.01;66.30;101493.38;5012275;28;20030;-43
2023/05/12 03:05:08;;;;;;;10.82;3.05;;;;;;;16.14;66.40;101478.88;5012112;28;20033;-47
2023/05/12 03:07:34;;;;;;;10.07;3.33;;;;;;;16.03;66.52;101482.34;5021690;28;20421;-45
2023/05/12 03:10:01;;;;;;;12.45;3.22;;;;;;;15.95;66.95;101490.75;5031550;28;20029;-44
2023/05/12 03:12:28;;;;;;;11.77;3.63;;;;;;;15.75;67.79;101489.09;5031221;28;20113;-44
2023/05/12 03:14:55;;;;;;;9.70;3.10;;;;;;;15.79;67.64;101487.59;5031778;28;20029;-43
2023/05/12 03:17:21;;;;;;;14.27;3.85;;;;;;;15.48;68.81;101493.91;5031834;28;20030;-47
2023/05/12 03:19:47;;;;;;;13.18;3.58;;;;;;;15.30;69.60;101485.78;5031494;28;20068;-44
2023/05/12 03:22:14;;;;;;;9.57;3.15;;;;;;;15.40;69.47;101491.50;5031598;28;20029;-43
2023/05/12 03:24:40;;;;;;;9.32;3.28;;;;;;;15.26;70.02;101489.97;5021200;28;20034;-44
2023/05/12 03:27:06;;;;;;;13.95;3.35;;;;;;;15.10;70.42;101483.25;5011472;28;20018;-44
2023/05/12 03:29:32;;;;;;;9.57;3.70;;;;;;;14.83;71.92;101481.81;5011617;28;20038;-44
2023/05/12 03:31:59;;;;;;;10.63;3.60;;;;;;;14.92;71.79;101488.59;5011866;28;20064;-44
2023/05/12 03:34:25;;;;;;;26.27;4.40;;;;;;;14.85;72.30;101480.56;5012287;28;20467;-43
2023/05/12 03:36:51;;;;;;;13.85;3.40;;;;;;;14.70;72.88;101494.31;5006669;28;20343;-43
2023/05/12 03:39:18;;;;;;;13.30;3.13;;;;;;;14.76;72.73;101498.84;5010655;28;20030;-43
2023/05/12 03:41:44;;;;;;;10.13;3.63;;;;;;;14.65;73.02;101493.31;5011284;28;20077;-44
2023/05/12 03:44:11;;;;;;;13.48;3.88;;;;;;;14.77;72.52;101503.22;5011432;28;20030;-44
2023/05/12 03:46:37;;;;;;;12.07;3.60;;;;;;;14.72;72.79;101497.66;5011852;28;20121;-43
2023/05/12 03:49:03;;;;;;;8.93;3.05;;;;;;;14.55;73.73;101495.66;5011552;28;20080;-44
2023/05/12 03:51:30;;;;;;;8.07;3.45;;;;;;;14.62;73.37;101502.69;5011822;28;20498;-46
2023/05/12 03:53:56;;;;;;;16.05;3.40;;;;;;;14.67;73.29;101504.72;5011421;28;20126;-45
2023/05/12 03:56:22;;;;;;;13.57;3.63;;;;;;;14.49;74.31;101503.59;5015675;28;20026;-47
2023/05/12 03:58:48;;;;;;;10.77;3.33;;;;;;;14.55;73.78;101499.22;5011448;28;20068;-45
2023/05/12 04:01:15;;;;;;;10.52;3.22;;;;;;;14.36;74.71;101497.41;5007038;28;20033;-45
2023/05/12 04:03:41;;;;;;;10.63;2.90;;;;;;;14.59;73.97;101503.09;5011348;28;20053;-44
2023/05/12 04:06:07;;;;;;;12.60;3.10;;;;;;;14.68;73.14;101503.69;5011331;28;20475;-45
2023/05/12 04:08:33;;;;;;;11.73;3.70;;;;;;;14.58;73.63;101504.16;5011046;28;20022;-45
2023/05/12 04:11:01;;;;;;;13.48;3.28;;;;;;;14.78;72.82;101495.94;5011197;28;20467;-44
2023/05/12 04:13:28;;;;;;;10.02;3.33;;;;;;;14.75;73.04;101507.97;5012303;28;20033;-47
2023/05/12 04:15:56;;;;;;;9.60;3.30;;;;;;;14.69;73.05;101505.31;5005911;28;20026;-46
2023/05/12 04:18:23;;;;;;;8.40;3.22;;;;;;;14.58;73.25;101514.09;5001462;28;20188;-45
2023/05/12 04:20:49;;;;;;;13.07;3.10;;;;;;;14.66;72.99;101516.56;5010711;28;20100;-47
2023/05/12 04:23:15;;;;;;;11.35;3.47;;;;;;;14.50;73.82;101513.31;5011632;28;20269;-44
2023/05/12 04:25:42;;;;;;;10.60;3.70;;;;;;;14.60;73.87;101510.13;5014672;28;20030;-45
2023/05/12 04:28:09;;;;;;;9.50;3.28;;;;;;;14.49;73.99;101506.28;5014179;28;20026;-46
2023/05/12 04:30:39;;;;;;;10.90;3.90;;;;;;;14.35;75.04;101511.91;5015115;28;20108;-46
2023/05/12 04:33:06;;;;;;;11.45;3.40;;;;;;;14.46;74.63;101513.94;5014641;28;20029;-44
2023/05/12 04:35:32;;;;;;;10.00;3.63;;;;;;;14.49;74.59;101510.81;5013231;28;20040;-45
2023/05/12 04:38:00;;;;;;;12.52;3.30;;;;;;;14.50;74.36;101507.94;4995171;28;20054;-45
2023/05/12 04:40:27;;;;;;;8.65;2.95;;;;;;;14.51;74.51;101509.56;4994869;28;20561;-46
2023/05/12 04:42:53;;;;;;;12.80;3.10;;;;;;;14.41;74.84;101506.50;4994803;28;20065;-45
2023/05/12 04:45:19;;;;;;;8.18;2.83;;;;;;;14.51;74.61;101506.06;4995101;28;20030;-45
2023/05/12 04:47:46;;;;;;;11.55;3.58;;;;;;;14.49;74.48;101506.28;5009079;28;20438;-48
2023/05/12 04:50:12;;;;;;;18.25;3.80;;;;;;;14.40;74.69;101501.31;5014210;28;20390;-43
2023/05/12 04:52:38;;;;;;;13.00;3.88;;;;;;;14.37;74.20;101499.88;5014411;28;20045;-47
2023/05/12 04:55:06;;;;;;;11.25;3.85;;;;;;;14.29;73.96;101502.81;5014438;28;20359;-46
2023/05/12 04:57:32;;;;;;;11.45;3.38;;;;;;;14.29;73.79;101496.63;5014341;28;20478;-47
2023/05/12 04:59:59;;;;;;;13.52;3.83;;;;;;;14.19;73.71;101505.97;4996291;28;20406;-44
2023/05/12 05:02:26;;;;;;;12.48;3.95;;;;;;;14.18;73.71;101500.81;5014190;28;20508;-46
2023/05/12 05:04:53;;;;;;;11.15;3.45;;;;;;;14.28;72.91;101495.78;5015133;28;20041;-47
2023/05/12 05:07:19;;;;;;;10.23;3.88;;;;;;;14.03;73.58;101498.38;5013709;28;20083;-44
2023/05/12 05:09:45;;;;;;;14.18;3.33;;;;;;;14.10;73.51;101501.88;5013104;28;20581;-45
2023/05/12 05:12:11;;;;;;;9.48;3.42;;;;;;;13.88;74.32;101501.34;5013812;28;20022;-44
2023/05/12 05:14:38;;;;;;;9.77;3.42;;;;;;;13.95;74.04;101510.22;5013927;28;20021;-43
2023/05/12 05:17:06;;;;;;;11.63;3.58;;;;;;;13.86;74.36;101514.16;5013952;28;20030;-45
2023/05/12 05:19:33;;;;;;;12.75;3.58;;;;;;;13.87;74.30;101509.59;5013839;28;20038;-43
2023/05/12 05:21:59;;;;;;;15.35;4.07;;;;;;;13.67;74.71;101506.97;5014471;28;20088;-43
2023/05/12 05:24:25;;;;;;;9.20;3.63;;;;;;;13.52;75.08;101515.25;5013362;28;20462;-44
2023/05/12 05:26:51;;;;;;;13.75;3.97;;;;;;;13.53;75.51;101511.53;4979953;28;20436;-45
2023/05/12 05:29:18;;;;;;;13.40;3.72;;;;;;;13.51;75.43;101519.00;5013243;28;20066;-43
2023/05/12 05:31:44;;;;;;;14.43;4.38;;;;;;;13.52;75.63;101514.44;5013925;28;20530;-43
2023/05/12 05:34:10;;;;;;;11.23;3.50;;;;;;;13.52;75.46;101519.81;5013324;28;20029;-43
2023/05/12 05:36:37;;;;;;;14.68;3.85;;;;;;;13.19;76.82;101517.94;5013149;28;20034;-46
2023/05/12 05:39:03;;;;;;;18.65;4.60;;;;;;;13.20;76.68;101517.72;5014206;28;20100;-43
2023/05/12 05:41:29;;;;;;;12.07;3.67;;;;;;;13.02;77.68;101514.81;5013410;28;20434;-43
2023/05/12 05:43:56;;;;;;;15.80;3.95;;;;;;;13.23;76.91;101513.00;5012907;28;20037;-45
2023/05/12 05:46:22;;;;;;;14.23;3.30;;;;;;;13.34;76.70;101523.16;5013410;28;20026;-43
2023/05/12 05:48:48;;;;;;;11.48;3.20;;;;;;;13.25;77.44;101511.75;5013105;28;20030;-43
2023/05/12 05:51:15;;;;;;;11.30;3.90;;;;;;;13.27;77.75;101509.72;5013309;28;20037;-47
2023/05/12 05:53:41;;;;;;;22.63;4.72;;;;;;;13.07;78.37;101508.84;5013181;28;20132;-47
2023/05/12 05:56:07;;;;;;;9.07;3.83;;;;;;;13.06;78.82;101512.56;5014208;28;20029;-44
2023/05/12 05:58:34;;;;;;;11.10;3.83;;;;;;;13.23;78.43;101513.84;5012872;28;20096;-43
2023/05/12 06:01:03;;;;;;;12.18;3.55;;;;;;;13.16;79.16;101502.22;5013173;28;20057;-46
2023/05/12 06:03:29;;;;;;;15.95;4.22;;;;;;;13.16;79.29;101513.00;5013161;28;20029;-45
2023/05/12 06:05:55;;;;;;;18.52;4.22;;;;;;;13.05;79.74;101503.69;5012774;28;20026;-46
2023/05/12 06:08:22;;;;;;;18.13;3.78;;;;;;;13.16;79.06;101502.22;5012858;28;20022;-46
2023/05/12 06:10:48;;;;;;;11.23;3.40;;;;;;;13.21;78.83;101499.75;5012969;28;20026;-43
2023/05/12 06:13:14;;;;;;;16.50;3.83;;;;;;;12.98;79.58;101496.63;5011482;28;20018;-44
2023/05/12 06:15:40;;;;;;;11.90;4.40;;;;;;;12.97;79.83;101492.28;5011468;28;20575;-44
2023/05/12 06:18:07;;;;;;;14.88;4.20;;;;;;;12.98;79.85;101493.94;5013072;28;20188;-46
2023/05/12 06:20:33;;;;;;;10.18;3.75;;;;;;;12.84;79.98;101496.63;5012744;28;20105;-44
2023/05/12 06:22:59;;;;;;;10.85;3.92;;;;;;;12.89;79.91;101488.78;5013097;28;20034;-43
2023/05/12 06:25:26;;;;;;;14.93;4.15;;;;;;;12.85;80.35;101495.59;5013288;28;20022;-44
2023/05/12 06:27:52;;;;;;;14.75;4.40;;;;;;;12.72;81.10;101490.22;5012876;28;20026;-43
2023/05/12 06:30:19;;;;;;;14.18;4.85;;;;;;;12.81;80.52;101488.13;5023399;23;20018;-44
2023/05/12 06:32:45;;;;;;;15.15;3.60;;;;;;;12.74;80.71;101498.06;5055222;28;20289;-44
2023/05/12 06:35:11;;;;;;;14.23;4.07;;;;;;;12.67;81.02;101495.38;5053234;28;20503;-46
2023/05/12 06:37:38;;;;;;;12.35;3.90;;;;;;;12.76;80.95;101495.97;5051757;28;20059;-46
2023/05/12 06:40:05;;;;;;;16.45;4.35;;;;;;;12.51;81.85;101506.47;5051504;28;20450;-46
2023/05/12 06:42:31;;;;;;;11.85;3.88;;;;;;;12.57;81.36;101497.59;5054772;28;20028;-43
2023/05/12 06:44:59;;;;;;;12.63;3.95;;;;;;;12.58;81.09;101502.78;5062145;28;20028;-43
2023/05/12 06:47:25;;;;;;;19.63;3.97;;;;;;;12.47;81.66;101497.16;5071326;28;20033;-42
2023/05/12 06:49:52;;;;;;;15.13;4.35;;;;;;;12.34;82.58;101498.78;5068651;28;20419;-43
2023/05/12 06:52:19;;;;;;;13.88;4.03;;;;;;;12.38;82.42;101507.25;5063188;28;20021;-43
2023/05/12 06:54:45;;;;;;;12.05;4.70;;;;;;;12.49;81.57;101497.78;5053229;28;20111;-43
2023/05/12 06:57:12;;;;;;;16.50;4.82;;;;;;;12.50;81.28;101500.28;5071890;28;20448;-44
2023/05/12 06:59:38;;;;;;;11.98;3.75;;;;;;;12.44;81.49;101498.41;5069539;28;20127;-45
2023/05/12 07:02:04;;;;;;;11.77;3.47;;;;;;;12.48;81.92;101504.19;5042797;28;20021;-43
2023/05/12 07:04:31;;;;;;;16.17;4.82;;;;;;;12.50;81.69;101510.19;5043580;28;20025;-43
2023/05/12 07:06:57;;;;;;;17.15;4.82;;;;;;;12.45;81.75;101509.97;5065871;28;20033;-44
2023/05/12 07:09:23;;;;;;;13.07;4.13;;;;;;;12.33;82.04;101507.88;5030230;28;20043;-44
2023/05/12 07:11:50;;;;;;;22.70;5.30;;;;;;;12.34;81.82;101504.16;5035728;28;20056;-43
2023/05/12 07:14:16;;;;;;;15.82;4.10;;;;;;;12.39;81.81;101509.75;5035136;28;20029;-44
2023/05/12 07:16:43;;;;;;;16.27;3.97;;;;;;;12.29;82.23;101514.66;5031534;28;20493;-43
2023/05/12 07:19:09;;;;;;;16.25;4.00;;;;;;;12.39;82.16;101516.97;5046572;28;20041;-42
2023/05/12 07:21:36;;;;;;;10.07;3.92;;;;;;;12.46;81.58;101514.31;5051655;28;20055;-43
2023/05/12 07:24:04;;;;;;;12.73;3.92;;;;;;;12.37;81.85;101514.47;5049425;28;20028;-44
2023/05/12 07:26:31;;;;;;;9.93;3.97;;;;;;;12.40;81.74;101519.44;5032447;28;20033;-43
2023/05/12 07:28:59;;;;;;;11.95;4.13;;;;;;;12.30;82.35;101521.69;5068230;28;20166;-44
2023/05/12 07:31:25;;;;;;;13.13;3.97;;;;;;;12.11;83.43;101519.75;5070579;28;20068;-43
2023/05/12 07:33:51;;;;;;;18.15;4.57;;;;;;;12.31;82.45;101519.81;5053628;28;20033;-45
2023/05/12 07:36:18;;;;;;;19.58;5.28;;;;;;;11.95;84.09;101520.91;5051572;28;20033;-44
2023/05/12 07:38:44;;;;;;;19.55;4.70;;;;;;;12.10;83.60;101520.75;5034273;28;20034;-43
2023/05/12 07:41:10;;;;;;;20.90;5.38;;;;;;;12.01;83.73;101514.75;5031013;28;20049;-42
2023/05/12 07:43:37;;;;;;;14.60;4.50;;;;;;;12.20;83.14;101513.16;5030554;28;20030;-43
2023/05/12 07:46:03;;;;;;;20.67;4.72;;;;;;;12.20;83.01;101509.66;5031224;28;20040;-45
2023/05/12 07:48:29;;;;;;;13.35;4.93;;;;;;;12.30;82.37;101518.16;5036569;28;20452;-43
2023/05/12 07:50:56;;;;;;;16.77;4.30;;;;;;;12.17;82.64;101513.59;5030958;28;20478;-43
2023/05/12 07:53:22;;;;;;;16.63;4.45;;;;;;;11.96;83.53;101511.00;5029656;28;20386;-43
2023/05/12 07:55:48;;;;;;;11.98;4.70;;;;;;;11.89;84.12;101508.28;5030970;28;20033;-42
2023/05/12 07:58:14;;;;;;;17.27;4.22;;;;;;;11.96;83.72;101513.69;5032417;28;20022;-42
2023/05/12 08:00:41;;;;;;;12.07;3.92;;;;;;;12.02;83.86;101519.09;5034622;28;20032;-44
2023/05/12 08:03:07;;;;;;;12.90;4.43;;;;;;;12.07;83.53;101513.13;5033054;28;20061;-42
2023/05/12 08:05:33;;;;;;;15.95;4.32;;;;;;;12.04;83.73;101516.19;5034836;28;20028;-42
2023/05/12 08:07:59;;;;;;;13.32;4.18;;;;;;;12.22;82.77;101516.50;5043898;28;20116;-43
2023/05/12 08:10:28;;;;;;;18.08;3.90;;;;;;;12.11;83.21;101517.06;5036864;28;20037;-44
2023/05/12 08:12:55;;;;;;;16.77;4.28;;;;;;;12.09;83.60;101511.06;5042106;28;20478;-43
2023/05/12 08:15:21;;;;;;;14.32;4.32;;;;;;;12.09;83.62;101521.78;5054657;28;20037;-42
2023/05/12 08:17:47;;;;;;;19.08;4.38;;;;;;;12.09;83.08;101522.63;5053402;28;20032;-43
2023/05/12 08:20:14;;;;;;;23.42;4.47;;;;;;;12.00;83.76;101515.78;5054466;28;20412;-42
2023/05/12 08:22:40;;;;;;;15.57;4.85;;;;;;;12.01;83.67;101514.75;5038686;28;20026;-43
2023/05/12 08:25:07;;;;;;;14.95;4.60;;;;;;;12.03;83.49;101520.72;5034444;28;20541;-43
2023/05/12 08:27:34;;;;;;;19.80;4.35;;;;;;;12.07;83.32;101518.50;5052380;28;20032;-43
2023/05/12 08:30:00;;;;;;;14.85;4.70;;;;;;;12.08;83.44;101518.28;5039733;28;20486;-45
2023/05/12 08:32:26;;;;;;;15.95;3.72;;;;;;;12.19;83.31;101511.53;5041996;28;20107;-43
2023/05/12 08:34:53;;;;;;;15.55;4.57;;;;;;;12.14;83.59;101513.97;5054369;28;20025;-43
2023/05/12 08:37:19;;;;;;;16.92;4.45;;;;;;;12.15;83.44;101507.56;5052213;28;20029;-43
2023/05/12 08:39:46;;;;;;;13.48;4.85;;;;;;;12.09;83.50;101511.06;5053972;28;20473;-44
2023/05/12 08:42:18;;;;;;;17.75;4.38;;;;;;;12.05;83.93;101509.81;5038536;28;20083;-44
2023/05/12 08:44:44;;;;;;;18.90;4.85;;;;;;;12.08;83.57;101506.72;5033576;28;20037;-43
2023/05/12 08:47:12;;;;;;;18.48;5.15;;;;;;;11.92;84.33;101499.00;5037607;28;20021;-43
2023/05/12 08:49:41;;;;;;;16.63;4.80;;;;;;;11.92;84.33;101509.75;5044683;28;20059;-44
2023/05/12 08:52:08;;;;;;;15.65;4.30;;;;;;;12.07;83.22;101508.59;5034541;28;20033;-43
2023/05/12 08:54:36;;;;;;;15.25;4.35;;;;;;;12.17;82.89;101505.53;5034139;28;20465;-42
2023/05/12 08:57:04;;;;;;;15.63;4.88;;;;;;;12.13;82.82;101501.59;5044076;28;20028;-43
2023/05/12 08:59:31;;;;;;;19.42;4.72;;;;;;;11.91;83.88;101510.78;5047691;28;20109;-43
2023/05/12 09:01:58;;;;;;;13.80;4.10;;;;;;;12.12;83.27;101510.66;5039314;28;20024;-43
2023/05/12 09:04:25;;;;;;;20.60;4.65;;;;;;;12.13;83.05;101509.63;5073951;28;20523;-43
2023/05/12 09:06:52;;;;;;;15.48;4.50;;;;;;;12.10;83.46;101501.97;5073050;28;20120;-43
2023/05/12 09:09:19;;;;;;;16.38;4.70;;;;;;;12.02;84.00;101504.84;5072857;28;20021;-43
2023/05/12 09:11:48;;;;;;;15.93;4.32;;;;;;;12.23;83.06;101502.03;5048965;28;20052;-43
2023/05/12 09:14:20;;;;;;;15.27;4.55;;;;;;;12.21;82.93;101506.75;5053743;28;20130;-44
2023/05/12 09:16:52;;;;;;;14.65;4.57;;;;;;;12.15;82.89;101500.34;5051747;28;20904;-43
2023/05/12 09:19:20;;;;;;;19.58;4.78;;;;;;;12.00;84.19;101501.53;5040976;28;20750;-43
2023/05/12 09:21:47;;;;;;;13.98;5.10;;;;;;;12.06;83.67;101503.44;5017309;28;20401;-43
2023/05/12 09:24:13;;;;;;;16.25;4.72;;;;;;;12.10;83.45;101499.28;5035355;28;20029;-45
2023/05/12 09:26:50;;;;;;;15.63;5.28;;;;;;;11.89;84.26;101503.75;5035528;28;20111;-43
2023/05/12 09:29:17;;;;;;;15.13;4.95;;;;;;;11.87;84.58;101496.91;5059000;28;20101;-43
2023/05/12 09:31:54;;;;;;;15.13;5.05;;;;;;;11.80;85.19;101502.22;5033646;28;20469;-43
2023/05/12 09:34:32;;;;;;;19.13;5.45;;;;;;;11.75;85.96;101498.47;5033374;28;20056;-43
2023/05/12 09:37:00;;;;;;;18.55;4.85;;;;;;;11.80;85.64;101504.06;5058084;28;20032;-45
2023/05/12 09:39:27;;;;;;;16.58;5.28;;;;;;;11.83;85.11;101495.69;5033232;28;20274;-43
2023/05/12 09:41:54;;;;;;;27.02;5.93;;;;;;;11.78;85.18;101498.09;5033093;28;20045;-43
2023/05/12 09:44:22;;;;;;;17.25;4.68;;;;;;;11.86;85.12;101490.72;5038341;28;20026;-44
2023/05/12 09:46:48;;;;;;;17.63;5.53;;;;;;;11.94;84.78;101496.94;5068055;28;20119;-43
2023/05/12 09:49:19;;;;;;;20.95;4.53;;;;;;;11.95;84.63;101494.09;5042895;28;20029;-42
2023/05/12 09:51:46;;;;;;;15.38;4.38;;;;;;;11.85;84.67;101491.75;5065748;28;20123;-42
2023/05/12 09:54:12;;;;;;;17.75;5.85;;;;;;;11.93;84.54;101490.75;5073002;28;20024;-44
2023/05/12 09:56:40;;;;;;;15.02;4.13;;;;;;;11.89;84.44;101492.19;5041237;28;20537;-43
2023/05/12 09:59:11;;;;;;;18.48;5.07;;;;;;;11.81;84.62;101498.53;5032441;28;20040;-44
2023/05/12 10:01:37;;;;;;;19.33;4.57;;;;;;;11.85;84.44;101486.38;5033526;28;20075;-42
2023/05/12 10:04:06;;;;;;;17.50;4.60;;;;;;;11.81;84.88;101489.63;5032723;28;20029;-44
2023/05/12 10:06:41;;;;;;;13.75;4.47;;;;;;;11.70;85.46;101492.88;5030311;28;20537;-42
2023/05/12 10:09:18;;;;;;;;;;;;;;;11.82;85.27;101488.63;5031282;28;20034;-45
2023/05/12 10:11:46;;;;;;;17.13;5.13;;;;;;;11.73;86.21;101481.75;5046847;28;19971;-45
2023/05/12 10:14:15;;;;;;;23.92;5.78;;;;;;;11.66;86.66;101483.56;5035112;28;20030;-43
2023/05/12 10:16:48;;;;;;;17.90;4.90;;;;;;;11.72;86.46;101480.09;5044359;28;20082;-43
2023/05/12 10:19:15;;;;;;;14.52;4.28;;;;;;;11.91;85.60;101483.94;5051515;28;20051;-46
2023/05/12 10:21:46;;;;;;;15.20;4.82;;;;;;;11.95;85.25;101490.56;5063381;28;20113;-43
2023/05/12 10:24:18;;;;;;;17.50;4.03;;;;;;;11.85;85.17;101485.56;5072594;28;20024;-43
2023/05/12 10:26:44;;;;;;;17.33;5.75;;;;;;;11.89;84.96;101490.34;5031215;28;20029;-42
2023/05/12 10:29:12;;;;;;;16.50;4.95;;;;;;;11.87;84.76;101494.22;5031653;28;20036;-43
2023/05/12 10:31:38;;;;;;;18.08;4.50;;;;;;;11.91;84.34;101492.00;5031445;28;20053;-42
2023/05/12 10:34:05;;;;;;;14.38;4.28;;;;;;;11.85;84.45;101491.75;5030528;28;20640;-42
2023/05/12 10:36:42;;;;;;;18.33;4.57;;;;;;;11.81;84.63;101493.16;5030523;28;20027;-44
2023/05/12 10:39:11;;;;;;;16.67;4.88;;;;;;;11.82;84.44;101488.63;5031880;28;20021;-44
2023/05/12 10:41:38;;;;;;;15.82;4.28;;;;;;;11.77;84.87;101480.31;5031597;28;20087;-43
2023/05/12 10:44:04;;;;;;;16.55;4.95;;;;;;;11.78;84.39;101482.81;5031948;28;20036;-45
2023/05/12 10:46:31;;;;;;;15.02;4.07;;;;;;;11.77;84.67;101478.50;5034708;28;20043;-43
2023/05/12 10:49:03;;;;;;;14.85;4.60;;;;;;;11.78;85.00;101471.28;5031224;28;20069;-43
2023/05/12 10:51:48;;;;;;;16.90;4.68;;;;;;;11.66;85.37;101470.16;5028225;28;20055;-43
2023/05/12 10:54:24;;;;;;;16.38;4.65;;;;;;;11.60;85.41;101474.44;5049918;28;20021;-43
2023/05/12 10:56:52;;;;;;;19.35;5.07;;;;;;;11.58;85.94;101479.19;5066693;28;20046;-43
2023/05/12 10:59:21;;;;;;;14.90;4.45;;;;;;;11.52;86.68;101477.28;5040645;28;20076;-43
2023/05/12 11:02:05;;;;;;;23.13;5.63;;;;;;;11.56;86.77;101481.25;5044333;28;20554;-43
2023/05/12 11:04:50;;;;;;;24.17;4.70;;;;;;;11.67;86.37;101474.50;5051656;28;20033;-46
2023/05/12 11:07:20;;;;;;;17.27;4.47;;;;;;;11.61;86.41;101476.13;5034827;28;20022;-43
2023/05/12 11:09:47;;;;;;;21.27;5.13;;;;;;;11.54;86.54;101483.28;5031496;28;20026;-46
2023/05/12 11:12:14;;;;;;;15.98;4.57;;;;;;;11.58;86.19;101481.88;5031743;28;20125;-43
2023/05/12 11:14:43;;;;;;;14.77;5.07;;;;;;;11.56;86.03;101494.66;5031808;28;20025;-43
2023/05/12 11:17:09;;;;;;;13.20;4.28;;;;;;;11.61;86.07;101495.72;5032349;28;20021;-43
2023/05/12 11:19:37;;;;;;;15.85;5.00;;;;;;;11.63;85.49;101503.56;5032177;28;20040;-45